This demonstration page uses our WeatherBlox Daily Observations layout. Learn more.

Left ArrowRight Arrow

36.17497, -115.13722

Hourly Observations for April 3, 2021

Temp ( °F °C ) Dew Point ( °F °C ) Humidity (%) Winds ( mph kmh ) Pressure ( in mb ) Visibility ( mi km ) Precip ( " mm )
12:53 am 00:53 Clear 67 19.4 26 -3.3 21 21 WNW 5 7 29.94 1014 10 16.0934 N/A
1:53 am 01:53 Clear 66 18.9 25 -3.9 21 21 N N/A 29.94 1014 10 16.0934 N/A
2:53 am 02:53 Clear 63 17.2 25 -3.9 24 24 NW 6 9 29.94 1014 10 16.0934 N/A
3:53 am 03:53 Clear 61 16.1 23 -5 23 23 WNW 6 9 29.94 1014 10 16.0934 N/A
4:53 am 04:53 Clear 61 16.1 23 -5 23 23 WNW 6 9 29.95 1014 10 16.0934 N/A
5:53 am 05:53 Clear 59 15 24 -4.4 26 26 W 7 11 29.97 1015 10 16.0934 N/A
6:53 am 06:53 Sunny 59 15 24 -4.4 26 26 NW 6 9 30 1016 10 16.0934 N/A
7:53 am 07:53 Sunny 67 19.4 26 -3.3 21 21 N N/A 30.01 1016 10 16.0934 N/A
8:53 am 08:53 Sunny 74 23.3 24 -4.4 15 15 N 3 6 30.02 1017 10 16.0934 N/A
9:53 am 09:53 Sunny 77 25 22 -5.6 13 13 N N/A 30.03 1017 10 16.0934 N/A
10:53 am 10:53 Sunny 81 27.2 22 -5.6 11 11 E 8 13 30.02 1017 10 16.0934 N/A
11:53 am 11:53 Sunny 83 28.3 20 -6.7 10 10 N N/A 30.01 1016 10 16.0934 N/A
12:53 pm 12:53 Sunny 87 30.6 16 -8.9 7 7 VRB 6 9 29.98 1015 10 16.0934 N/A
1:53 pm 13:53 Sunny 90 32.2 17 -8.3 7 7 SSE 8 13 29.95 1014 10 16.0934 N/A
2:53 pm 14:53 Sunny 91 32.8 9 -12.8 4 4 SSE 9 15 29.93 1013 10 16.0934 N/A
3:53 pm 15:53 Sunny 92 33.3 N/A 3 3 S 15 24 29.9 1013 10 16.0934 N/A
4:53 pm 16:53 Sunny 91 32.8 -1 -18.3 3 3 S 12 19 29.9 1012 10 16.0934 N/A
5:53 pm 17:53 Sunny 91 32.8 -1 -18.3 3 3 SSW 13 20 29.89 1012 10 16.0934 N/A
6:53 pm 18:53 Sunny 88 31.1 N/A 3 3 SW 9 15 29.9 1012 10 16.0934 N/A
7:53 pm 19:53 Clear 84 28.9 N/A 4 4 SSW 9 15 29.9 1013 10 16.0934 N/A
8:53 pm 20:53 Clear 82 27.8 1 -17.2 4 4 WSW 7 11 29.92 1013 10 16.0934 N/A
9:53 pm 21:53 Clear 75 23.9 6 -14.4 7 7 W 5 7 29.93 1014 10 16.0934 N/A
10:53 pm 22:53 Clear 72 22.2 4 -15.6 7 7 N N/A 29.94 1014 10 16.0934 N/A
11:53 pm 23:53 Clear 67 19.4 10 -12.2 11 11 NNW 7 11 29.94 1014 10 16.0934 N/A

Powered by AerisWeather